Time;durP1;ratioP1;P1;durP2;ratioP2;P2;SDS_P1;SDS_P2;PMS_P1;PMS_P2;Temp;Humidity;BMP_temperature;BMP_pressure;BME280_temperature;BME280_humidity;BME280_pressure;Samples;Min_cycle;Max_cycle;Signal;HPM_P1;HPM_P2
2020/12/30 00:01:10;;;;;;;27.63;15.13;;;;;;;;;;5052562;28;20614;-81
2020/12/30 00:03:35;;;;;;;59.37;38.07;;;;;;;;;;5052233;28;20223;-81
2020/12/30 00:06:01;;;;;;;48.10;26.57;;;;;;;;;;5051844;28;20210;-81
2020/12/30 00:08:27;;;;;;;39.37;22.10;;;;;;;;;;5052106;28;20191;-82
2020/12/30 00:10:53;;;;;;;45.60;27.03;;;;;;;;;;5052100;28;20207;-81
2020/12/30 00:13:18;;;;;;;35.77;21.27;;;;;;;;;;5052044;28;20182;-81
2020/12/30 00:15:43;;;;;;;27.23;16.00;;;;;;;;;;5052306;28;20172;-82
2020/12/30 00:18:09;;;;;;;24.27;14.20;;;;;;;;;;5051954;28;20198;-81
2020/12/30 00:20:34;;;;;;;25.03;13.90;;;;;;;;;;5051671;28;20168;-81
2020/12/30 00:23:00;;;;;;;25.53;13.93;;;;;;;;;;5052196;28;20186;-81
2020/12/30 00:25:27;;;;;;;23.03;13.60;;;;;;;;;;5051728;28;20203;-81
2020/12/30 00:27:53;;;;;;;27.00;13.83;;;;;;;;;;5051530;28;20171;-81
2020/12/30 00:30:18;;;;;;;26.17;14.17;;;;;;;;;;5051380;28;20182;-81
2020/12/30 00:32:44;;;;;;;25.17;13.77;;;;;;;;;;5052012;28;20229;-81
2020/12/30 00:35:10;;;;;;;26.73;13.43;;;;;;;;;;5051757;28;20258;-81
2020/12/30 00:37:35;;;;;;;20.67;12.80;;;;;;;;;;5051417;28;20327;-81
2020/12/30 00:40:01;;;;;;;19.93;12.37;;;;;;;;;;5051700;28;20229;-81
2020/12/30 00:42:30;;;;;;;19.77;12.33;;;;;;;;;;5051650;28;20171;-82
2020/12/30 00:44:57;;;;;;;20.20;12.73;;;;;;;;;;5051555;28;20183;-81
2020/12/30 00:47:22;;;;;;;21.60;12.60;;;;;;;;;;5051445;28;20195;-81
2020/12/30 00:49:47;;;;;;;25.43;14.53;;;;;;;;;;5051906;28;20229;-82
2020/12/30 00:52:13;;;;;;;24.83;13.77;;;;;;;;;;5052084;28;20250;-81
2020/12/30 00:54:38;;;;;;;26.00;14.33;;;;;;;;;;5051172;28;20179;-81
2020/12/30 00:57:03;;;;;;;27.80;13.87;;;;;;;;;;5051115;28;20540;-82
2020/12/30 00:59:29;;;;;;;25.20;14.20;;;;;;;;;;5051719;28;20642;-81
2020/12/30 01:01:54;;;;;;;22.50;13.00;;;;;;;;;;5051255;28;20168;-82
2020/12/30 01:04:19;;;;;;;21.67;13.37;;;;;;;;;;5051199;28;20168;-82
2020/12/30 01:06:51;;;;;;;20.67;12.60;;;;;;;;;;5051601;28;20287;-82
2020/12/30 01:09:17;;;;;;;23.40;12.83;;;;;;;;;;5051688;28;20196;-81
2020/12/30 01:11:42;;;;;;;22.43;12.80;;;;;;;;;;5051067;28;20626;-82
2020/12/30 01:14:08;;;;;;;21.90;14.80;;;;;;;;;;5051391;28;20168;-81
2020/12/30 01:16:33;;;;;;;20.37;12.93;;;;;;;;;;5050995;28;20250;-81
2020/12/30 01:18:58;;;;;;;25.77;13.10;;;;;;;;;;5051013;28;20499;-81
2020/12/30 01:21:24;;;;;;;22.27;12.87;;;;;;;;;;5051066;28;20168;-81
2020/12/30 01:23:49;;;;;;;23.23;12.13;;;;;;;;;;5051419;28;20171;-82
2020/12/30 01:26:14;;;;;;;19.20;12.37;;;;;;;;;;5051062;28;20223;-82
2020/12/30 01:28:41;;;;;;;24.03;13.90;;;;;;;;;;5051256;28;20172;-81
2020/12/30 01:31:06;;;;;;;34.07;18.87;;;;;;;;;;5033158;28;20721;-81
2020/12/30 01:33:31;;;;;;;30.20;19.07;;;;;;;;;;5051140;28;20195;-82
2020/12/30 01:35:57;;;;;;;33.27;21.30;;;;;;;;;;5050835;28;20539;-81
2020/12/30 01:38:22;;;;;;;29.67;20.07;;;;;;;;;;5050983;28;20164;-81
2020/12/30 01:40:52;;;;;;;27.60;17.87;;;;;;;;;;5051273;28;20175;-81
2020/12/30 01:43:17;;;;;;;22.97;15.53;;;;;;;;;;5052310;28;20306;-81
2020/12/30 01:45:43;;;;;;;23.03;15.50;;;;;;;;;;5054584;28;20283;-81
2020/12/30 01:48:15;;;;;;;21.27;13.93;;;;;;;;;;5054566;28;20226;-81
2020/12/30 01:50:40;;;;;;;22.20;14.17;;;;;;;;;;5054557;28;20175;-81
2020/12/30 01:53:07;;;;;;;20.87;14.77;;;;;;;;;;5054490;28;20888;-81
2020/12/30 01:55:34;;;;;;;23.23;14.83;;;;;;;;;;5054516;28;20183;-82
2020/12/30 01:58:00;;;;;;;26.07;17.23;;;;;;;;;;5054413;28;20635;-81
2020/12/30 02:00:25;;;;;;;23.77;16.23;;;;;;;;;;5054350;28;20253;-81
2020/12/30 02:02:58;;;;;;;25.40;14.63;;;;;;;;;;5054576;28;20782;-81
2020/12/30 02:05:24;;;;;;;30.00;15.33;;;;;;;;;;5054292;28;20167;-81
2020/12/30 02:07:50;;;;;;;29.43;17.07;;;;;;;;;;5054379;28;20192;-81
2020/12/30 02:10:16;;;;;;;28.87;17.40;;;;;;;;;;5054397;28;20255;-81
2020/12/30 02:12:41;;;;;;;28.33;17.00;;;;;;;;;;5054668;28;20254;-81
2020/12/30 02:15:06;;;;;;;64.03;31.20;;;;;;;;;;5054100;28;20249;-81
2020/12/30 02:17:32;;;;;;;84.37;38.37;;;;;;;;;;5054290;28;20257;-81
2020/12/30 02:19:57;;;;;;;70.50;33.50;;;;;;;;;;5054183;28;20196;-81
2020/12/30 02:22:25;;;;;;;55.10;29.43;;;;;;;;;;5054246;28;20591;-81
2020/12/30 02:24:50;;;;;;;64.10;32.70;;;;;;;;;;5054106;28;20191;-81
2020/12/30 02:27:15;;;;;;;68.90;34.30;;;;;;;;;;5054377;28;20280;-81
2020/12/30 02:29:41;;;;;;;81.27;42.47;;;;;;;;;;5054639;28;20514;-81
2020/12/30 02:32:06;;;;;;;66.30;36.27;;;;;;;;;;5054686;28;20615;-81
2020/12/30 02:34:31;;;;;;;39.23;21.77;;;;;;;;;;5055131;28;20164;-81
2020/12/30 02:36:57;;;;;;;36.00;22.23;;;;;;;;;;5054727;28;20221;-81
2020/12/30 02:39:22;;;;;;;21.73;15.43;;;;;;;;;;5055069;28;20227;-81
2020/12/30 02:41:48;;;;;;;20.57;13.57;;;;;;;;;;5054510;28;20222;-81
2020/12/30 02:44:13;;;;;;;16.63;10.70;;;;;;;;;;5054719;28;20168;-81
2020/12/30 02:46:38;;;;;;;13.33;8.37;;;;;;;;;;5054597;28;20216;-81
2020/12/30 02:49:04;;;;;;;11.57;8.43;;;;;;;;;;5054659;28;20168;-81
2020/12/30 02:51:29;;;;;;;9.80;7.13;;;;;;;;;;5054379;28;20168;-81
2020/12/30 02:53:54;;;;;;;8.77;7.10;;;;;;;;;;5054379;28;20179;-81
2020/12/30 02:56:20;;;;;;;6.73;6.07;;;;;;;;;;5054042;28;20270;-81
2020/12/30 02:58:45;;;;;;;6.50;5.57;;;;;;;;;;5054726;28;20168;-81
2020/12/30 03:01:11;;;;;;;8.60;5.80;;;;;;;;;;5054156;28;20246;-81
2020/12/30 03:03:37;;;;;;;7.20;5.60;;;;;;;;;;5054489;28;20281;-81
2020/12/30 03:06:02;;;;;;;6.10;4.70;;;;;;;;;;5054002;28;20195;-81
2020/12/30 03:08:27;;;;;;;4.33;3.57;;;;;;;;;;5054237;28;20202;-81
2020/12/30 03:10:53;;;;;;;5.43;3.83;;;;;;;;;;5054066;28;20174;-81
2020/12/30 03:13:18;;;;;;;4.53;3.70;;;;;;;;;;5054043;28;20266;-81
2020/12/30 03:15:43;;;;;;;6.83;4.10;;;;;;;;;;5053900;28;20174;-82
2020/12/30 03:18:09;;;;;;;5.50;4.03;;;;;;;;;;5054161;28;20258;-82
2020/12/30 03:20:34;;;;;;;7.33;4.30;;;;;;;;;;5053872;28;20190;-82
2020/12/30 03:22:59;;;;;;;5.77;4.50;;;;;;;;;;5053755;28;20637;-83
2020/12/30 03:25:25;;;;;;;3.97;3.67;;;;;;;;;;5054128;28;20607;-81
2020/12/30 03:27:50;;;;;;;6.93;4.63;;;;;;;;;;5054034;28;20203;-81
2020/12/30 03:30:15;;;;;;;5.47;4.50;;;;;;;;;;5053666;28;20615;-81
2020/12/30 03:32:40;;;;;;;7.57;4.90;;;;;;;;;;5053841;28;20165;-81
2020/12/30 03:35:06;;;;;;;5.20;4.33;;;;;;;;;;5053554;28;20168;-81
2020/12/30 03:37:32;;;;;;;4.50;4.03;;;;;;;;;;5053541;28;20514;-81
2020/12/30 03:39:57;;;;;;;9.97;6.23;;;;;;;;;;5053749;28;20172;-81
2020/12/30 03:42:23;;;;;;;8.37;5.77;;;;;;;;;;5053379;28;20248;-81
2020/12/30 03:44:48;;;;;;;7.27;5.30;;;;;;;;;;5035936;28;20538;-81
2020/12/30 03:47:13;;;;;;;7.30;4.70;;;;;;;;;;5053558;28;20705;-81
2020/12/30 03:49:39;;;;;;;11.30;6.73;;;;;;;;;;5053214;28;20549;-81
2020/12/30 03:52:04;;;;;;;10.23;7.57;;;;;;;;;;5053195;28;20175;-82
2020/12/30 03:54:29;;;;;;;14.80;9.03;;;;;;;;;;5053628;28;20590;-81
2020/12/30 03:56:55;;;;;;;15.57;9.63;;;;;;;;;;5053148;28;20176;-81
2020/12/30 03:59:20;;;;;;;9.67;7.27;;;;;;;;;;5053361;28;20175;-81
2020/12/30 04:01:45;;;;;;;8.87;7.20;;;;;;;;;;5053122;28;20268;-82
2020/12/30 04:04:14;;;;;;;19.73;12.37;;;;;;;;;;5052945;28;20175;-82
2020/12/30 04:06:40;;;;;;;55.93;44.27;;;;;;;;;;5052518;28;20626;-82
2020/12/30 04:09:05;;;;;;;12.03;9.53;;;;;;;;;;5053137;28;20202;-82
2020/12/30 04:11:30;;;;;;;10.67;7.07;;;;;;;;;;5053066;28;20531;-82
2020/12/30 04:13:56;;;;;;;10.17;6.87;;;;;;;;;;5053109;28;20603;-82
2020/12/30 04:16:22;;;;;;;11.57;7.70;;;;;;;;;;5052757;28;20176;-82
2020/12/30 04:18:47;;;;;;;12.43;8.03;;;;;;;;;;5053114;28;20183;-82
2020/12/30 04:21:17;;;;;;;9.60;6.60;;;;;;;;;;5053362;28;20172;-82
2020/12/30 04:23:42;;;;;;;10.17;7.60;;;;;;;;;;5052932;28;20181;-82
2020/12/30 04:26:07;;;;;;;11.90;8.00;;;;;;;;;;5052589;28;20311;-82
2020/12/30 04:28:32;;;;;;;15.63;11.17;;;;;;;;;;5052718;28;20194;-82
2020/12/30 04:30:58;;;;;;;10.43;7.47;;;;;;;;;;5052495;28;20544;-81
2020/12/30 04:33:23;;;;;;;9.50;7.53;;;;;;;;;;5052493;28;20168;-82
2020/12/30 04:35:49;;;;;;;12.27;9.67;;;;;;;;;;5052713;28;20171;-82
2020/12/30 04:38:14;;;;;;;12.47;9.30;;;;;;;;;;5034977;28;20630;-82
2020/12/30 04:40:40;;;;;;;11.57;10.33;;;;;;;;;;5052566;28;20164;-82
2020/12/30 04:43:06;;;;;;;10.43;8.57;;;;;;;;;;5052638;28;20570;-83
2020/12/30 04:45:32;;;;;;;16.30;14.10;;;;;;;;;;5052470;28;20172;-82
2020/12/30 04:47:57;;;;;;;14.40;12.73;;;;;;;;;;5052607;28;20232;-81
2020/12/30 04:50:23;;;;;;;17.17;15.27;;;;;;;;;;5052236;28;20244;-80
2020/12/30 04:52:48;;;;;;;10.87;8.07;;;;;;;;;;5052327;28;20172;-81
2020/12/30 04:55:16;;;;;;;19.87;15.13;;;;;;;;;;5052244;28;20179;-81
2020/12/30 04:57:48;;;;;;;16.83;12.13;;;;;;;;;;5052221;28;20180;-81
2020/12/30 05:00:13;;;;;;;14.87;10.03;;;;;;;;;;5052637;28;20244;-81
2020/12/30 05:02:46;;;;;;;14.17;10.73;;;;;;;;;;5051991;28;20752;-81
2020/12/30 05:05:12;;;;;;;25.73;19.33;;;;;;;;;;5052287;28;20164;-81
2020/12/30 05:07:39;;;;;;;19.73;14.47;;;;;;;;;;5052532;28;20221;-82
2020/12/30 05:10:05;;;;;;;26.17;17.33;;;;;;;;;;5052883;28;20233;-81
2020/12/30 05:12:30;;;;;;;22.73;15.83;;;;;;;;;;5052171;28;20183;-81
2020/12/30 05:14:55;;;;;;;28.77;20.33;;;;;;;;;;5052220;28;20168;-81
2020/12/30 05:17:21;;;;;;;16.40;11.47;;;;;;;;;;5052191;28;20195;-81
2020/12/30 05:19:46;;;;;;;92.87;46.23;;;;;;;;;;5056043;28;20202;-81
2020/12/30 05:22:18;;;;;;;58.80;37.70;;;;;;;;;;5056323;28;20164;-81
2020/12/30 05:24:44;;;;;;;18.40;14.00;;;;;;;;;;5056592;28;20221;-82
2020/12/30 05:27:10;;;;;;;12.70;9.47;;;;;;;;;;5056168;28;20199;-81
2020/12/30 05:29:39;;;;;;;19.20;15.07;;;;;;;;;;5056171;28;20176;-81
2020/12/30 05:32:05;;;;;;;13.70;11.37;;;;;;;;;;5038454;28;20266;-81
2020/12/30 05:34:30;;;;;;;13.40;10.53;;;;;;;;;;5055868;28;20569;-81
2020/12/30 05:36:56;;;;;;;14.40;9.30;;;;;;;;;;5056053;28;20175;-81
2020/12/30 05:39:30;;;;;;;13.53;9.03;;;;;;;;;;5055941;28;20160;-81
2020/12/30 05:42:11;;;;;;;13.93;9.90;;;;;;;;;;5056247;28;20286;-81
2020/12/30 05:44:37;;;;;;;10.80;7.67;;;;;;;;;;5056241;28;20704;-81
2020/12/30 05:47:16;;;;;;;13.00;8.70;;;;;;;;;;5056016;28;20219;-81
2020/12/30 05:49:41;;;;;;;11.13;7.27;;;;;;;;;;5056014;28;20220;-82
2020/12/30 05:52:33;;;;;;;11.13;7.97;;;;;;;;;;5038367;28;20168;-81
2020/12/30 05:54:59;;;;;;;13.07;8.77;;;;;;;;;;5052320;28;20274;-81
2020/12/30 05:57:31;;;;;;;16.30;9.67;;;;;;;;;;5055687;28;20298;-81
2020/12/30 05:59:58;;;;;;;15.63;10.40;;;;;;;;;;5055599;28;20179;-81
2020/12/30 06:02:27;;;;;;;16.93;11.27;;;;;;;;;;5055144;28;20224;-81
2020/12/30 06:04:56;;;;;;;28.10;20.90;;;;;;;;;;5055652;28;20180;-81
2020/12/30 06:07:23;;;;;;;19.27;12.73;;;;;;;;;;5055515;28;20203;-82
2020/12/30 06:09:50;;;;;;;31.33;20.50;;;;;;;;;;5055478;28;20207;-81
2020/12/30 06:12:21;;;;;;;26.80;17.13;;;;;;;;;;5055159;28;20571;-81
2020/12/30 06:14:49;;;;;;;18.23;11.60;;;;;;;;;;5055046;28;20247;-81
2020/12/30 06:17:21;;;;;;;44.53;27.73;;;;;;;;;;5055067;28;20175;-82
2020/12/30 06:19:48;;;;;;;38.70;23.07;;;;;;;;;;5055499;28;20191;-81
2020/12/30 06:22:16;;;;;;;32.93;21.30;;;;;;;;;;5055298;28;20172;-81
2020/12/30 06:24:42;;;;;;;20.40;12.87;;;;;;;;;;5055191;28;20176;-81
2020/12/30 06:27:12;;;;;;;21.10;13.03;;;;;;;;;;5055070;28;20658;-81
2020/12/30 06:29:38;;;;;;;19.23;13.60;;;;;;;;;;5054579;28;20544;-81
2020/12/30 06:32:03;;;;;;;24.23;18.47;;;;;;;;;;5054703;28;20172;-81
2020/12/30 06:34:34;;;;;;;20.37;15.27;;;;;;;;;;5055300;28;20238;-81
2020/12/30 06:37:02;;;;;;;28.77;21.33;;;;;;;;;;5054980;28;20170;-81
2020/12/30 06:39:27;;;;;;;41.67;28.57;;;;;;;;;;5055270;28;20255;-81
2020/12/30 06:42:00;;;;;;;53.80;38.73;;;;;;;;;;5054584;28;20259;-81
2020/12/30 06:44:43;;;;;;;43.33;29.70;;;;;;;;;;5054901;28;20646;-81
2020/12/30 06:47:09;;;;;;;40.93;29.10;;;;;;;;;;5054680;28;20200;-81
2020/12/30 06:49:35;;;;;;;179.13;88.87;;;;;;;;;;5054915;28;20180;-81
2020/12/30 06:52:00;;;;;;;67.33;37.80;;;;;;;;;;5054629;28;20172;-81
2020/12/30 06:54:45;;;;;;;48.00;25.47;;;;;;;;;;5054548;28;20623;-81
2020/12/30 06:57:30;;;;;;;33.60;22.50;;;;;;;;;;5054404;28;20179;-81
2020/12/30 06:59:55;;;;;;;33.63;20.80;;;;;;;;;;5054288;28;20698;-81
2020/12/30 07:02:21;;;;;;;29.30;20.43;;;;;;;;;;5054120;28;20310;-81
2020/12/30 07:04:58;;;;;;;30.93;20.30;;;;;;;;;;5054473;28;20156;-81
2020/12/30 07:07:23;;;;;;;32.33;23.00;;;;;;;;;;5053967;28;20242;-82
2020/12/30 07:09:49;;;;;;;32.40;22.97;;;;;;;;;;5054107;28;20168;-82
2020/12/30 07:12:15;;;;;;;41.53;26.03;;;;;;;;;;5054307;28;20607;-81
2020/12/30 07:14:40;;;;;;;155.70;76.77;;;;;;;;;;5054473;28;20215;-81
2020/12/30 07:17:09;;;;;;;95.27;51.30;;;;;;;;;;5054260;28;20203;-81
2020/12/30 07:19:35;;;;;;;85.83;46.57;;;;;;;;;;5054160;28;20246;-81
2020/12/30 07:22:00;;;;;;;76.53;42.87;;;;;;;;;;5054142;28;20191;-81
2020/12/30 07:24:27;;;;;;;69.53;39.97;;;;;;;;;;5053796;28;20168;-82
2020/12/30 07:26:53;;;;;;;65.07;41.77;;;;;;;;;;5053615;28;20195;-81
2020/12/30 07:29:19;;;;;;;65.73;37.37;;;;;;;;;;5054176;28;20183;-81
2020/12/30 07:31:46;;;;;;;53.23;34.10;;;;;;;;;;5053928;28;20168;-81
2020/12/30 07:34:15;;;;;;;130.67;75.47;;;;;;;;;;5053584;28;20164;-81
2020/12/30 07:36:41;;;;;;;61.43;34.10;;;;;;;;;;5053635;28;20270;-81
2020/12/30 07:39:06;;;;;;;86.17;43.27;;;;;;;;;;5053800;28;20612;-81
2020/12/30 07:41:35;;;;;;;70.23;40.87;;;;;;;;;;5052707;28;20176;-81
2020/12/30 07:44:02;;;;;;;56.80;36.33;;;;;;;;;;5059530;28;20182;-81
2020/12/30 07:46:28;;;;;;;50.70;31.93;;;;;;;;;;5073568;28;20195;-81
2020/12/30 07:48:53;;;;;;;59.17;36.97;;;;;;;;;;5073212;28;20182;-82
2020/12/30 07:51:19;;;;;;;83.20;39.70;;;;;;;;;;5073532;28;20228;-82
2020/12/30 07:53:53;;;;;;;44.63;28.10;;;;;;;;;;5073204;28;20198;-82
2020/12/30 07:56:24;;;;;;;65.27;37.53;;;;;;;;;;5073697;28;20178;-82
2020/12/30 07:58:50;;;;;;;147.23;60.63;;;;;;;;;;5073637;28;20175;-82
2020/12/30 08:01:18;;;;;;;120.03;54.93;;;;;;;;;;5073154;28;20163;-82
2020/12/30 08:03:44;;;;;;;98.37;45.27;;;;;;;;;;5073399;28;20314;-82
2020/12/30 08:06:09;;;;;;;97.03;43.73;;;;;;;;;;5073139;28;20721;-82
2020/12/30 08:08:40;;;;;;;123.90;49.87;;;;;;;;;;5073013;28;20195;-82
2020/12/30 08:11:06;;;;;;;86.87;39.47;;;;;;;;;;5073464;28;20160;-81
2020/12/30 08:13:31;;;;;;;115.37;51.20;;;;;;;;;;5073075;28;20618;-81
2020/12/30 08:15:56;;;;;;;134.57;57.67;;;;;;;;;;5073119;28;20272;-82
2020/12/30 08:18:22;;;;;;;100.10;50.13;;;;;;;;;;5073358;28;20170;-81
2020/12/30 08:20:47;;;;;;;76.53;38.60;;;;;;;;;;5072666;28;20513;-82
2020/12/30 08:23:16;;;;;;;62.77;34.40;;;;;;;;;;5073239;28;20690;-82
2020/12/30 08:25:45;;;;;;;83.80;41.13;;;;;;;;;;5072988;28;20186;-81
2020/12/30 08:28:11;;;;;;;61.30;33.87;;;;;;;;;;5071040;28;20195;-82
2020/12/30 08:30:36;;;;;;;45.33;26.27;;;;;;;;;;5072553;28;20186;-81
2020/12/30 08:33:07;;;;;;;46.03;26.70;;;;;;;;;;5072760;28;20258;-81
2020/12/30 08:35:35;;;;;;;78.40;39.73;;;;;;;;;;5071006;28;20258;-81
2020/12/30 08:38:10;;;;;;;44.40;26.20;;;;;;;;;;5081825;28;20202;-81
2020/12/30 08:40:35;;;;;;;42.67;24.47;;;;;;;;;;5070768;28;20316;-80
2020/12/30 08:43:20;;;;;;;26.90;18.50;;;;;;;;;;5072360;28;20254;-80
2020/12/30 08:45:48;;;;;;;39.30;21.83;;;;;;;;;;5072164;28;20203;-80
2020/12/30 08:48:20;;;;;;;33.83;21.37;;;;;;;;;;5072385;28;20547;-80
2020/12/30 08:50:46;;;;;;;38.13;24.40;;;;;;;;;;5069059;28;20629;-80
2020/12/30 08:53:12;;;;;;;92.97;58.87;;;;;;;;;;5042455;28;20178;-81
2020/12/30 08:55:37;;;;;;;110.80;63.37;;;;;;;;;;5073189;28;20183;-81
2020/12/30 08:58:03;;;;;;;118.43;72.13;;;;;;;;;;5073657;28;20511;-81
2020/12/30 09:00:35;;;;;;;101.37;62.30;;;;;;;;;;5073768;28;20171;-81
2020/12/30 09:03:11;;;;;;;65.20;41.90;;;;;;;;;;5073566;28;20234;-81
2020/12/30 09:05:36;;;;;;;46.67;31.63;;;;;;;;;;5076957;28;20175;-80
2020/12/30 09:08:12;;;;;;;55.73;34.03;;;;;;;;;;5092013;28;20190;-80
2020/12/30 09:10:37;;;;;;;53.63;34.80;;;;;;;;;;5093221;28;20185;-81
2020/12/30 09:13:12;;;;;;;89.83;47.77;;;;;;;;;;5093765;28;20170;-81
2020/12/30 09:15:38;;;;;;;69.37;40.30;;;;;;;;;;5093775;28;20170;-80
2020/12/30 09:18:03;;;;;;;54.93;33.93;;;;;;;;;;5093701;28;20592;-81
2020/12/30 09:20:32;;;;;;;60.53;35.27;;;;;;;;;;5094305;28;20310;-81
2020/12/30 09:23:01;;;;;;;76.97;42.53;;;;;;;;;;5093547;28;20174;-81
2020/12/30 09:25:27;;;;;;;94.57;46.23;;;;;;;;;;5093528;28;20666;-80
2020/12/30 09:27:52;;;;;;;99.90;52.43;;;;;;;;;;5093268;28;20182;-80
2020/12/30 09:30:19;;;;;;;118.67;59.30;;;;;;;;;;5093867;28;20241;-80
2020/12/30 09:32:46;;;;;;;78.37;45.53;;;;;;;;;;5093492;28;20207;-81
2020/12/30 09:35:12;;;;;;;65.10;36.73;;;;;;;;;;5093223;28;20202;-80
2020/12/30 09:37:38;;;;;;;94.60;43.03;;;;;;;;;;5093840;28;20224;-79
2020/12/30 09:40:05;;;;;;;80.17;40.00;;;;;;;;;;5093538;28;20316;-80
2020/12/30 09:42:30;;;;;;;53.40;33.00;;;;;;;;;;5093664;28;20178;-80
2020/12/30 09:44:55;;;;;;;45.60;32.37;;;;;;;;;;5092407;28;20170;-81
2020/12/30 09:47:21;;;;;;;146.67;74.43;;;;;;;;;;5091153;28;20278;-81
2020/12/30 09:49:46;;;;;;;121.57;74.90;;;;;;;;;;5091866;28;20323;-81
2020/12/30 09:52:11;;;;;;;89.57;52.90;;;;;;;;;;5092629;28;20216;-80
2020/12/30 09:54:37;;;;;;;83.83;53.30;;;;;;;;;;5093162;28;20611;-81
2020/12/30 09:57:02;;;;;;;81.23;52.60;;;;;;;;;;5092960;28;20632;-80
2020/12/30 09:59:27;;;;;;;95.00;62.17;;;;;;;;;;5089247;28;20201;-80
2020/12/30 10:01:53;;;;;;;91.63;58.00;;;;;;;;;;5052556;28;20251;-80
2020/12/30 10:04:18;;;;;;;86.50;52.97;;;;;;;;;;5064131;28;20230;-82
2020/12/30 10:06:46;;;;;;;88.10;55.17;;;;;;;;;;5075832;28;20258;-81
2020/12/30 10:09:13;;;;;;;85.77;51.07;;;;;;;;;;5057758;28;20203;-80
2020/12/30 10:11:38;;;;;;;88.80;51.63;;;;;;;;;;5077196;28;20206;-81
2020/12/30 10:14:04;;;;;;;173.67;99.30;;;;;;;;;;5077087;28;20175;-81
2020/12/30 10:16:30;;;;;;;112.43;68.23;;;;;;;;;;5058531;28;20533;-81
2020/12/30 10:18:55;;;;;;;110.07;63.93;;;;;;;;;;5076468;28;20259;-80
2020/12/30 10:21:26;;;;;;;289.10;132.07;;;;;;;;;;5076475;28;20303;-80
2020/12/30 10:23:51;;;;;;;198.00;97.77;;;;;;;;;;5076367;28;20158;-80
2020/12/30 10:26:17;;;;;;;126.80;66.50;;;;;;;;;;5076265;28;20199;-80
2020/12/30 10:28:42;;;;;;;112.97;63.53;;;;;;;;;;5076034;28;20167;-80
2020/12/30 10:31:07;;;;;;;132.87;72.23;;;;;;;;;;5076269;28;20175;-81
2020/12/30 10:33:33;;;;;;;116.63;63.67;;;;;;;;;;5076388;28;20590;-80
2020/12/30 10:35:58;;;;;;;85.63;52.57;;;;;;;;;;5076455;28;20182;-81
2020/12/30 10:38:24;;;;;;;106.73;60.90;;;;;;;;;;5074435;28;20603;-81
2020/12/30 10:40:49;;;;;;;118.90;70.40;;;;;;;;;;5075600;28;20203;-81
2020/12/30 10:43:15;;;;;;;98.13;53.87;;;;;;;;;;5076080;28;20624;-81
2020/12/30 10:45:40;;;;;;;101.23;56.20;;;;;;;;;;5076461;28;20556;-81
2020/12/30 10:48:05;;;;;;;99.63;58.20;;;;;;;;;;5075921;28;20660;-81
2020/12/30 10:50:32;;;;;;;105.47;57.83;;;;;;;;;;5075801;28;20695;-80
2020/12/30 10:52:57;;;;;;;77.13;46.13;;;;;;;;;;5076087;28;20202;-80
2020/12/30 10:55:23;;;;;;;61.37;36.27;;;;;;;;;;5075752;28;20661;-80
2020/12/30 10:57:48;;;;;;;60.97;37.80;;;;;;;;;;5075435;28;20175;-81
2020/12/30 11:00:13;;;;;;;54.47;35.67;;;;;;;;;;5058527;28;20514;-81
2020/12/30 11:02:39;;;;;;;52.43;34.80;;;;;;;;;;5054769;28;20222;-81
2020/12/30 11:05:04;;;;;;;65.50;40.30;;;;;;;;;;5055284;28;20646;-81
2020/12/30 11:07:29;;;;;;;66.00;40.13;;;;;;;;;;5037555;28;20196;-80
2020/12/30 11:09:55;;;;;;;65.13;38.77;;;;;;;;;;5055282;28;20615;-81
2020/12/30 11:12:20;;;;;;;54.33;34.97;;;;;;;;;;5055427;28;20167;-81
2020/12/30 11:14:45;;;;;;;49.17;32.53;;;;;;;;;;5055253;28;20179;-81
2020/12/30 11:17:10;;;;;;;58.83;38.37;;;;;;;;;;5054324;28;20182;-80
2020/12/30 11:19:36;;;;;;;57.13;36.07;;;;;;;;;;5055138;28;20170;-80
2020/12/30 11:22:01;;;;;;;54.77;35.80;;;;;;;;;;5054970;28;20170;-80
2020/12/30 11:24:26;;;;;;;65.07;41.53;;;;;;;;;;5054949;28;20170;-80
2020/12/30 11:26:52;;;;;;;63.83;41.13;;;;;;;;;;5055104;28;20565;-80
2020/12/30 11:29:17;;;;;;;57.87;38.40;;;;;;;;;;5055114;28;20179;-81
2020/12/30 11:31:42;;;;;;;60.30;38.50;;;;;;;;;;5054849;28;20164;-80
2020/12/30 11:34:08;;;;;;;68.00;38.70;;;;;;;;;;5055113;28;20182;-81
2020/12/30 11:36:34;;;;;;;60.47;39.13;;;;;;;;;;5055017;28;20168;-80
2020/12/30 11:39:00;;;;;;;63.73;39.93;;;;;;;;;;5054985;28;20168;-80
2020/12/30 11:41:25;;;;;;;68.40;44.83;;;;;;;;;;5054879;28;20171;-81
2020/12/30 11:43:50;;;;;;;57.20;40.83;;;;;;;;;;5054741;28;20495;-80
2020/12/30 11:46:16;;;;;;;56.03;39.20;;;;;;;;;;5053722;28;20205;-80
2020/12/30 11:48:42;;;;;;;59.80;37.03;;;;;;;;;;5054586;28;20180;-80
2020/12/30 11:51:07;;;;;;;61.30;40.13;;;;;;;;;;5054405;28;20633;-80
2020/12/30 11:53:32;;;;;;;53.33;38.63;;;;;;;;;;5053297;28;20174;-81
2020/12/30 11:55:59;;;;;;;49.03;34.00;;;;;;;;;;5052476;28;20168;-81
2020/12/30 11:58:24;;;;;;;55.63;35.10;;;;;;;;;;5052406;28;20182;-80
2020/12/30 12:00:49;;;;;;;71.80;44.17;;;;;;;;;;5052487;28;20172;-81
2020/12/30 12:03:15;;;;;;;62.93;41.10;;;;;;;;;;5052184;28;20232;-81
2020/12/30 12:05:41;;;;;;;54.10;35.83;;;;;;;;;;5052681;28;20195;-81
2020/12/30 12:08:07;;;;;;;56.03;35.20;;;;;;;;;;5052437;28;20199;-81
2020/12/30 12:10:32;;;;;;;45.50;30.97;;;;;;;;;;5068312;28;20532;-81
2020/12/30 12:12:59;;;;;;;56.20;36.60;;;;;;;;;;5072209;28;20640;-82
2020/12/30 12:15:25;;;;;;;50.27;33.83;;;;;;;;;;5072410;28;20182;-81
2020/12/30 12:17:50;;;;;;;43.90;30.90;;;;;;;;;;5068362;28;20179;-81
2020/12/30 12:20:15;;;;;;;46.87;32.07;;;;;;;;;;5047456;28;20171;-81
2020/12/30 12:22:41;;;;;;;43.20;30.33;;;;;;;;;;5063994;28;20319;-81
2020/12/30 12:25:06;;;;;;;59.60;38.77;;;;;;;;;;5065721;28;20171;-81
2020/12/30 12:27:32;;;;;;;51.03;33.83;;;;;;;;;;5072526;28;20662;-80
2020/12/30 12:29:57;;;;;;;48.50;34.70;;;;;;;;;;5072520;28;20232;-81
2020/12/30 12:32:24;;;;;;;50.70;34.17;;;;;;;;;;5072263;28;20190;-81
2020/12/30 12:34:51;;;;;;;48.37;34.73;;;;;;;;;;5072154;28;20174;-80
2020/12/30 12:37:17;;;;;;;59.20;39.90;;;;;;;;;;5071794;28;20593;-81
2020/12/30 12:39:43;;;;;;;67.33;43.10;;;;;;;;;;5072343;28;20179;-81
2020/12/30 12:42:09;;;;;;;75.77;47.63;;;;;;;;;;5072106;28;20175;-81
2020/12/30 12:44:34;;;;;;;87.27;52.53;;;;;;;;;;5071956;28;20211;-82
2020/12/30 12:47:00;;;;;;;91.67;54.43;;;;;;;;;;5071959;28;20199;-81
2020/12/30 12:49:25;;;;;;;76.63;49.30;;;;;;;;;;5071202;28;20175;-81
2020/12/30 12:51:52;;;;;;;75.63;49.37;;;;;;;;;;5070865;28;20167;-82
2020/12/30 12:54:18;;;;;;;89.70;49.40;;;;;;;;;;5071041;28;20171;-82
2020/12/30 12:56:43;;;;;;;71.03;46.57;;;;;;;;;;5071283;28;20190;-81
2020/12/30 12:59:09;;;;;;;68.07;45.93;;;;;;;;;;5070958;28;20220;-81
2020/12/30 13:01:35;;;;;;;72.53;49.10;;;;;;;;;;5071017;28;20502;-81
2020/12/30 13:04:00;;;;;;;69.93;45.87;;;;;;;;;;5070934;28;20689;-81
2020/12/30 13:06:29;;;;;;;82.90;50.83;;;;;;;;;;5070508;28;20298;-82
2020/12/30 13:08:56;;;;;;;91.57;55.90;;;;;;;;;;5070556;28;20226;-82
2020/12/30 13:11:22;;;;;;;61.97;40.90;;;;;;;;;;5070952;28;20232;-82
2020/12/30 13:13:47;;;;;;;84.27;54.40;;;;;;;;;;5070865;28;20634;-82
2020/12/30 13:16:12;;;;;;;113.23;70.87;;;;;;;;;;5070828;28;20251;-81
2020/12/30 13:18:38;;;;;;;99.97;64.63;;;;;;;;;;5070504;28;20309;-81
2020/12/30 13:21:03;;;;;;;98.13;63.07;;;;;;;;;;5071484;28;20202;-81
2020/12/30 13:23:28;;;;;;;100.80;66.97;;;;;;;;;;5072583;28;20205;-81
2020/12/30 13:25:54;;;;;;;107.37;66.47;;;;;;;;;;5071108;28;20237;-81
2020/12/30 13:28:20;;;;;;;107.27;69.17;;;;;;;;;;5072205;28;20186;-81
2020/12/30 13:30:45;;;;;;;110.67;68.97;;;;;;;;;;5072392;28;20167;-81
2020/12/30 13:33:10;;;;;;;104.30;67.67;;;;;;;;;;5072177;28;20173;-81
2020/12/30 13:35:36;;;;;;;105.77;63.93;;;;;;;;;;5072360;28;20258;-81
2020/12/30 13:38:01;;;;;;;108.37;65.17;;;;;;;;;;5072474;28;20171;-81
2020/12/30 13:40:26;;;;;;;105.33;63.40;;;;;;;;;;5075417;28;20171;-81
2020/12/30 13:42:51;;;;;;;130.17;80.90;;;;;;;;;;5076518;28;20172;-81
2020/12/30 13:45:17;;;;;;;177.63;103.77;;;;;;;;;;5076297;28;20175;-81
2020/12/30 13:47:42;;;;;;;172.00;99.90;;;;;;;;;;5076031;28;20195;-80
2020/12/30 13:50:07;;;;;;;142.13;86.77;;;;;;;;;;5075983;28;20172;-81
2020/12/30 13:52:33;;;;;;;140.47;85.77;;;;;;;;;;5076269;28;20217;-81
2020/12/30 13:54:58;;;;;;;138.77;87.20;;;;;;;;;;5075456;28;20175;-80
2020/12/30 13:57:23;;;;;;;172.37;101.73;;;;;;;;;;5075625;28;20178;-81
2020/12/30 13:59:49;;;;;;;176.77;101.37;;;;;;;;;;5076134;28;20633;-80
2020/12/30 14:02:14;;;;;;;177.47;103.37;;;;;;;;;;5075421;28;20179;-80
2020/12/30 14:04:39;;;;;;;172.00;103.87;;;;;;;;;;5075527;28;20556;-80
2020/12/30 14:07:05;;;;;;;180.37;106.53;;;;;;;;;;5075669;28;20662;-80
2020/12/30 14:09:30;;;;;;;199.43;112.90;;;;;;;;;;5075273;28;20189;-80
2020/12/30 14:11:56;;;;;;;191.40;111.93;;;;;;;;;;5057642;28;20167;-81
2020/12/30 14:14:21;;;;;;;181.20;104.93;;;;;;;;;;5075935;28;20186;-80